createdAt,value
2017-08-10T00:01:07.720Z,18.20
2017-08-10T00:03:35.354Z,18.20
2017-08-10T00:06:02.994Z,18.20
2017-08-10T00:08:30.701Z,18.20
2017-08-10T00:10:58.347Z,18.20
2017-08-10T00:13:26.376Z,18.10
2017-08-10T00:15:54.050Z,18.20
2017-08-10T00:18:21.697Z,18.10
2017-08-10T00:20:49.338Z,18.10
2017-08-10T00:23:17.037Z,18.10
2017-08-10T00:25:44.670Z,18.00
2017-08-10T00:28:12.301Z,17.90
2017-08-10T00:30:40.165Z,17.90
2017-08-10T00:33:07.814Z,17.90
2017-08-10T00:35:35.474Z,17.90
2017-08-10T00:38:03.201Z,17.80
2017-08-10T00:40:30.825Z,17.80
2017-08-10T00:42:58.460Z,17.80
2017-08-10T00:45:26.151Z,17.80
2017-08-10T00:47:53.777Z,17.80
2017-08-10T00:50:21.410Z,17.90
2017-08-10T00:52:49.192Z,17.90
2017-08-10T00:55:16.826Z,17.90
2017-08-10T00:57:44.481Z,17.80
2017-08-10T01:02:46.546Z,17.90
2017-08-10T01:05:14.259Z,17.80
2017-08-10T01:07:41.891Z,17.90
2017-08-10T01:10:09.566Z,17.90
2017-08-10T01:12:37.282Z,17.90
2017-08-10T01:15:04.927Z,17.90
2017-08-10T01:17:32.561Z,17.90
2017-08-10T01:20:00.256Z,18.00
2017-08-10T01:22:27.899Z,18.00
2017-08-10T01:24:55.542Z,18.10
2017-08-10T01:27:23.231Z,18.20
2017-08-10T01:29:50.932Z,18.10
2017-08-10T01:32:18.680Z,18.10
2017-08-10T01:34:46.426Z,18.10
2017-08-10T01:37:14.084Z,18.20
2017-08-10T01:39:41.820Z,18.10
2017-08-10T01:42:09.510Z,18.10
2017-08-10T01:44:37.156Z,18.10
2017-08-10T01:47:04.824Z,18.00
2017-08-10T01:49:32.538Z,18.00
2017-08-10T01:52:00.662Z,17.90
2017-08-10T01:54:28.405Z,17.90
2017-08-10T01:56:56.134Z,17.90
2017-08-10T01:59:23.799Z,17.90
2017-08-10T02:01:51.524Z,17.90
2017-08-10T02:04:19.218Z,17.90
2017-08-10T02:06:47.306Z,17.90
2017-08-10T02:09:14.975Z,17.90
2017-08-10T02:11:42.653Z,18.00
2017-08-10T02:14:10.288Z,17.90
2017-08-10T02:16:37.913Z,17.90
2017-08-10T02:19:05.606Z,17.80
2017-08-10T02:21:33.647Z,17.70
2017-08-10T02:24:01.287Z,17.70
2017-08-10T02:26:29.063Z,17.70
2017-08-10T02:28:56.765Z,17.60
2017-08-10T02:31:24.422Z,17.50
2017-08-10T02:33:52.182Z,17.50
2017-08-10T02:36:20.317Z,17.40
2017-08-10T02:38:47.970Z,17.40
2017-08-10T02:41:15.708Z,17.40
2017-08-10T02:43:43.353Z,17.40
2017-08-10T02:46:10.991Z,17.40
2017-08-10T02:48:38.794Z,17.40
2017-08-10T02:51:06.441Z,17.30
2017-08-10T02:53:34.081Z,17.30
2017-08-10T02:56:01.768Z,17.30
2017-08-10T02:58:29.429Z,17.20
2017-08-10T03:00:57.066Z,17.30
2017-08-10T03:03:24.800Z,17.30
2017-08-10T03:05:52.450Z,17.30
2017-08-10T03:08:20.084Z,17.30
2017-08-10T03:10:47.769Z,17.20
2017-08-10T03:13:15.416Z,17.10
2017-08-10T03:15:43.051Z,17.10
2017-08-10T03:18:10.753Z,17.10
2017-08-10T03:20:38.399Z,17.10
2017-08-10T03:23:06.055Z,17.00
2017-08-10T03:25:33.749Z,17.00
2017-08-10T03:28:01.387Z,16.90
2017-08-10T03:30:29.036Z,16.90
2017-08-10T03:32:56.865Z,16.90
2017-08-10T03:35:24.512Z,16.80
2017-08-10T03:37:52.154Z,16.70
2017-08-10T03:40:19.842Z,16.70
2017-08-10T03:42:47.474Z,16.70
2017-08-10T03:45:15.525Z,16.60
2017-08-10T03:47:43.655Z,16.60
2017-08-10T03:50:11.298Z,16.60
2017-08-10T03:52:38.943Z,16.50
2017-08-10T03:55:06.630Z,16.50
2017-08-10T03:57:34.273Z,16.50
2017-08-10T04:00:02.318Z,16.50
2017-08-10T04:02:30.437Z,16.40
2017-08-10T04:04:58.086Z,16.40
2017-08-10T04:07:25.719Z,16.40
2017-08-10T04:09:53.430Z,16.30
2017-08-10T04:12:21.129Z,16.30
2017-08-10T04:14:49.283Z,16.30
2017-08-10T04:17:16.971Z,16.30
2017-08-10T04:19:44.984Z,16.30
2017-08-10T04:22:12.627Z,16.20
2017-08-10T04:24:40.376Z,16.20
2017-08-10T04:27:08.011Z,16.20
2017-08-10T04:29:35.637Z,16.20
2017-08-10T04:32:03.415Z,16.20
2017-08-10T04:34:31.050Z,16.30
2017-08-10T04:36:58.677Z,16.30
2017-08-10T04:39:26.370Z,16.40
2017-08-10T04:41:54.097Z,16.40
2017-08-10T04:44:21.730Z,16.50
2017-08-10T04:46:49.489Z,16.50
2017-08-10T04:49:17.134Z,16.50
2017-08-10T04:51:44.880Z,16.50
2017-08-10T04:54:12.628Z,16.60
2017-08-10T04:56:40.278Z,16.70
2017-08-10T04:59:08.021Z,16.80
2017-08-10T05:01:35.774Z,16.80
2017-08-10T05:04:03.422Z,16.80
2017-08-10T05:06:31.046Z,16.90
2017-08-10T05:08:58.830Z,17.10
2017-08-10T05:11:26.466Z,17.30
2017-08-10T05:13:54.103Z,17.40
2017-08-10T05:16:21.799Z,17.60
2017-08-10T05:18:49.488Z,17.60
2017-08-10T05:21:17.130Z,17.70
2017-08-10T05:23:44.822Z,17.70
2017-08-10T05:26:12.449Z,17.80
2017-08-10T05:28:40.578Z,18.00
2017-08-10T05:31:08.262Z,17.90
2017-08-10T05:33:36.487Z,18.00
2017-08-10T05:36:04.351Z,18.00
2017-08-10T05:38:32.195Z,18.10
2017-08-10T05:40:59.936Z,18.00
2017-08-10T05:43:27.637Z,17.90
2017-08-10T05:45:55.632Z,17.70
2017-08-10T05:48:23.343Z,17.50
2017-08-10T05:50:51.129Z,17.50
2017-08-10T05:53:18.903Z,17.40
2017-08-10T05:55:46.929Z,17.60
2017-08-10T05:58:14.575Z,17.60
2017-08-10T06:00:42.427Z,17.60
2017-08-10T06:03:10.146Z,17.70
2017-08-10T06:05:38.021Z,17.80
2017-08-10T06:08:05.881Z,18.10
2017-08-10T06:10:33.816Z,18.40
2017-08-10T06:13:01.679Z,18.90
2017-08-10T06:15:29.475Z,19.30
2017-08-10T06:17:57.169Z,19.70
2017-08-10T06:20:24.911Z,19.70
2017-08-10T06:22:52.621Z,19.80
2017-08-10T06:25:20.305Z,19.70
2017-08-10T06:27:48.050Z,19.80
2017-08-10T06:30:15.837Z,19.90
2017-08-10T06:32:43.475Z,20.00
2017-08-10T06:35:11.507Z,20.00
2017-08-10T06:40:13.642Z,20.40
2017-08-10T06:42:41.354Z,20.40
2017-08-10T06:45:09.019Z,20.30
2017-08-10T06:47:36.658Z,20.10
2017-08-10T06:50:04.433Z,20.30
2017-08-10T06:52:32.181Z,20.30
2017-08-10T06:54:59.823Z,20.30
2017-08-10T06:57:27.674Z,20.20
2017-08-10T06:59:55.318Z,20.00
2017-08-10T07:02:22.955Z,20.00
2017-08-10T07:04:50.639Z,19.70
2017-08-10T07:07:18.329Z,19.90
2017-08-10T07:09:45.957Z,20.20
2017-08-10T07:12:13.749Z,20.20
2017-08-10T07:14:41.495Z,20.20
2017-08-10T07:17:09.145Z,20.20
2017-08-10T07:19:36.833Z,19.90
2017-08-10T07:22:04.534Z,19.70
2017-08-10T07:24:32.166Z,19.60
2017-08-10T07:26:59.846Z,19.60
2017-08-10T07:29:27.571Z,19.50
2017-08-10T07:31:55.320Z,19.50
2017-08-10T07:34:22.998Z,19.40
2017-08-10T07:36:50.710Z,19.30
2017-08-10T07:39:18.345Z,19.20
2017-08-10T07:41:46.103Z,19.00
2017-08-10T07:44:13.745Z,19.20
2017-08-10T07:46:41.503Z,19.30
2017-08-10T07:49:09.206Z,19.30
2017-08-10T07:51:36.841Z,19.30
2017-08-10T07:54:04.533Z,19.30
2017-08-10T07:56:32.238Z,19.40
2017-08-10T07:58:59.865Z,19.50
2017-08-10T08:01:27.503Z,19.50
2017-08-10T08:03:55.627Z,19.50
2017-08-10T08:06:23.370Z,19.40
2017-08-10T08:08:51.118Z,19.40
2017-08-10T08:11:18.871Z,19.20
2017-08-10T08:13:46.615Z,19.20
2017-08-10T08:16:14.255Z,19.10
2017-08-10T08:18:42.007Z,19.00
2017-08-10T08:21:09.650Z,19.00
2017-08-10T08:23:37.292Z,19.00
2017-08-10T08:26:05.088Z,18.80
2017-08-10T08:28:32.792Z,18.80
2017-08-10T08:31:00.434Z,18.70
2017-08-10T08:33:28.266Z,18.70
2017-08-10T08:35:55.929Z,18.70
2017-08-10T08:38:23.588Z,18.70
2017-08-10T08:40:51.424Z,18.70
2017-08-10T08:43:19.087Z,18.70
2017-08-10T08:45:46.821Z,18.70
2017-08-10T08:48:14.593Z,18.60
2017-08-10T08:50:42.622Z,18.50
2017-08-10T08:53:10.276Z,18.60
2017-08-10T08:55:37.959Z,18.50
2017-08-10T08:58:05.599Z,18.50
2017-08-10T09:00:33.234Z,18.50
2017-08-10T09:03:01.560Z,18.50
2017-08-10T09:05:29.204Z,18.50
2017-08-10T09:07:56.833Z,18.50
2017-08-10T09:10:24.558Z,18.50
2017-08-10T09:12:52.241Z,18.50
2017-08-10T09:15:19.886Z,18.60
2017-08-10T09:17:47.585Z,18.50
2017-08-10T09:20:15.235Z,18.50
2017-08-10T09:22:42.871Z,18.50
2017-08-10T09:25:10.586Z,18.40
2017-08-10T09:27:38.222Z,18.30
2017-08-10T09:30:05.858Z,18.30
2017-08-10T09:32:33.686Z,18.20
2017-08-10T09:35:01.456Z,18.20
2017-08-10T09:37:29.091Z,18.20
2017-08-10T09:39:56.847Z,18.10
2017-08-10T09:42:24.493Z,18.10
2017-08-10T09:44:52.240Z,18.10
2017-08-10T09:47:19.945Z,18.10
2017-08-10T09:49:47.601Z,18.10
2017-08-10T09:52:15.275Z,18.00
2017-08-10T09:54:42.998Z,18.00
2017-08-10T09:57:10.654Z,18.00
2017-08-10T09:59:38.312Z,18.20
2017-08-10T10:02:06.060Z,18.40
2017-08-10T10:04:33.703Z,18.40
2017-08-10T10:07:01.347Z,18.50
2017-08-10T10:09:29.099Z,18.50
2017-08-10T10:11:56.739Z,18.60
2017-08-10T10:14:24.491Z,18.70
2017-08-10T10:16:52.546Z,18.70
2017-08-10T10:19:20.292Z,18.80
2017-08-10T10:21:48.039Z,18.90
2017-08-10T10:24:15.750Z,18.90
2017-08-10T10:26:43.432Z,18.90
2017-08-10T10:29:11.280Z,18.90
2017-08-10T10:31:39.053Z,19.00
2017-08-10T10:34:07.184Z,19.00
2017-08-10T10:36:34.822Z,19.00
2017-08-10T10:39:02.602Z,18.90
2017-08-10T10:41:30.237Z,18.80
2017-08-10T10:43:57.970Z,18.90
2017-08-10T10:46:25.718Z,19.00
2017-08-10T10:48:53.354Z,19.00
2017-08-10T10:51:21.024Z,19.00
2017-08-10T10:53:48.712Z,19.00
2017-08-10T10:56:16.348Z,19.00
2017-08-10T10:58:44.006Z,19.00
2017-08-10T11:01:11.706Z,18.90
2017-08-10T11:03:39.436Z,18.80
2017-08-10T11:06:07.080Z,18.80
2017-08-10T11:08:34.805Z,18.70
2017-08-10T11:11:02.486Z,18.70
2017-08-10T11:13:30.126Z,18.70
2017-08-10T11:15:57.827Z,18.70
2017-08-10T11:18:25.470Z,18.60
2017-08-10T11:20:53.158Z,18.50
2017-08-10T11:23:20.849Z,18.50
2017-08-10T11:25:48.487Z,18.40
2017-08-10T11:28:16.533Z,18.20
2017-08-10T11:30:44.651Z,18.10
2017-08-10T11:33:12.305Z,18.20
2017-08-10T11:35:40.048Z,18.20
2017-08-10T11:38:07.747Z,18.20
2017-08-10T11:40:35.543Z,18.20
2017-08-10T11:43:03.191Z,18.20
2017-08-10T11:45:30.878Z,18.20
2017-08-10T11:47:58.523Z,18.30
2017-08-10T11:50:26.329Z,18.20
2017-08-10T11:52:54.045Z,18.20
2017-08-10T11:55:21.689Z,18.20
2017-08-10T11:57:49.330Z,18.20
2017-08-10T12:00:17.115Z,18.30
2017-08-10T12:02:44.762Z,18.30
2017-08-10T12:05:12.505Z,18.30
2017-08-10T12:07:40.290Z,18.40
2017-08-10T12:10:08.101Z,18.30
2017-08-10T12:12:35.849Z,18.30
2017-08-10T12:15:03.599Z,18.20
2017-08-10T12:17:31.238Z,18.30
2017-08-10T12:19:58.996Z,18.30
2017-08-10T12:22:26.694Z,18.40
2017-08-10T12:24:54.331Z,18.40
2017-08-10T12:27:22.005Z,18.30
2017-08-10T12:29:49.718Z,18.30
2017-08-10T12:32:17.522Z,18.30
2017-08-10T12:34:45.270Z,18.30
2017-08-10T12:37:13.035Z,18.40
2017-08-10T12:39:40.694Z,18.30
2017-08-10T12:42:08.407Z,18.30
2017-08-10T12:44:36.097Z,18.30
2017-08-10T12:47:03.746Z,18.30
2017-08-10T12:49:31.404Z,18.20
2017-08-10T12:51:59.194Z,18.20
2017-08-10T12:54:26.830Z,18.20
2017-08-10T12:56:54.478Z,18.10
2017-08-10T12:59:22.170Z,18.00
2017-08-10T13:01:49.832Z,18.00
2017-08-10T13:04:17.520Z,18.00
2017-08-10T13:06:45.211Z,18.00
2017-08-10T13:09:12.911Z,18.00
2017-08-10T13:11:40.558Z,18.00
2017-08-10T13:14:08.361Z,18.10
2017-08-10T13:16:36.018Z,18.10
2017-08-10T13:19:03.659Z,18.10
2017-08-10T13:21:31.369Z,18.10
2017-08-10T13:23:59.011Z,18.00
2017-08-10T13:26:26.663Z,17.90
2017-08-10T13:28:54.791Z,17.70
2017-08-10T13:31:22.541Z,17.70
2017-08-10T13:33:50.284Z,17.70
2017-08-10T13:36:18.009Z,17.70
2017-08-10T13:38:45.675Z,17.70
2017-08-10T13:41:13.425Z,17.70
2017-08-10T13:43:41.566Z,17.80
2017-08-10T13:46:09.223Z,17.70
2017-08-10T13:48:36.867Z,17.70
2017-08-10T13:51:04.556Z,17.70
2017-08-10T13:53:32.582Z,17.50
2017-08-10T13:56:00.222Z,17.50
2017-08-10T13:58:27.954Z,17.50
2017-08-10T14:00:55.712Z,17.50
2017-08-10T14:03:23.355Z,17.40
2017-08-10T14:05:51.046Z,17.30
2017-08-10T14:08:18.746Z,17.20
2017-08-10T14:10:46.383Z,17.20
2017-08-10T14:13:14.990Z,17.10
2017-08-10T14:15:43.092Z,17.10
2017-08-10T14:18:10.744Z,17.10
2017-08-10T14:20:38.454Z,17.00
2017-08-10T14:23:06.101Z,17.00
2017-08-10T14:25:33.746Z,16.90
2017-08-10T14:28:01.444Z,16.70
2017-08-10T14:30:29.083Z,16.60
2017-08-10T14:32:56.834Z,16.60
2017-08-10T14:35:24.589Z,16.60
2017-08-10T14:37:52.230Z,16.70
2017-08-10T14:40:20.077Z,16.70
2017-08-10T14:42:47.825Z,16.70
2017-08-10T14:45:15.570Z,16.80
2017-08-10T14:47:43.208Z,16.80
2017-08-10T14:50:10.954Z,16.80
2017-08-10T14:52:38.607Z,16.70
2017-08-10T14:55:06.242Z,16.70
2017-08-10T14:57:33.939Z,16.60
2017-08-10T15:00:01.631Z,16.60
2017-08-10T15:02:29.269Z,16.60
2017-08-10T15:04:57.038Z,16.60
2017-08-10T15:07:24.674Z,16.60
2017-08-10T15:09:52.430Z,16.60
2017-08-10T15:12:20.180Z,16.60
2017-08-10T15:14:47.899Z,16.60
2017-08-10T15:17:15.546Z,16.60
2017-08-10T15:19:43.266Z,16.60
2017-08-10T15:22:10.919Z,16.60
2017-08-10T15:24:38.612Z,16.60
2017-08-10T15:27:06.294Z,16.60
2017-08-10T15:29:33.940Z,16.50
2017-08-10T15:32:01.578Z,15.90
2017-08-10T15:34:29.672Z,15.10
2017-08-10T15:36:57.306Z,15.10
2017-08-10T15:39:25.296Z,14.90
2017-08-10T15:41:53.043Z,14.70
2017-08-10T15:44:20.693Z,14.40
2017-08-10T15:46:48.435Z,14.20
2017-08-10T15:49:16.134Z,14.10
2017-08-10T15:51:43.827Z,14.10
2017-08-10T15:54:11.469Z,14.10
2017-08-10T15:56:39.181Z,14.10
2017-08-10T15:59:06.863Z,14.10
2017-08-10T16:01:34.612Z,14.10
2017-08-10T16:04:02.426Z,14.00
2017-08-10T16:06:30.061Z,13.90
2017-08-10T16:08:57.753Z,13.80
2017-08-10T16:11:25.499Z,13.70
2017-08-10T16:13:53.143Z,13.70
2017-08-10T16:16:20.773Z,13.70
2017-08-10T16:18:48.475Z,13.60
2017-08-10T16:21:16.116Z,13.60
2017-08-10T16:23:43.825Z,13.50
2017-08-10T16:26:11.577Z,13.40
2017-08-10T16:28:39.318Z,13.40
2017-08-10T16:31:06.959Z,13.30
2017-08-10T16:33:34.646Z,13.20
2017-08-10T16:36:02.278Z,13.10
2017-08-10T16:38:30.314Z,13.10
2017-08-10T16:40:57.993Z,13.10
2017-08-10T16:43:25.634Z,13.10
2017-08-10T16:45:53.274Z,13.10
2017-08-10T16:48:20.973Z,13.10
2017-08-10T16:50:48.639Z,13.10
2017-08-10T16:53:16.286Z,13.10
2017-08-10T16:55:44.029Z,13.10
2017-08-10T16:58:11.674Z,13.10
2017-08-10T17:00:39.322Z,13.10
2017-08-10T17:03:07.009Z,13.10
2017-08-10T17:05:34.650Z,13.10
2017-08-10T17:08:02.357Z,13.00
2017-08-10T17:10:30.094Z,13.00
2017-08-10T17:12:57.744Z,13.00
2017-08-10T17:15:25.602Z,12.90
2017-08-10T17:17:53.345Z,12.90
2017-08-10T17:20:20.987Z,12.80
2017-08-10T17:22:48.626Z,12.70
2017-08-10T17:25:16.313Z,12.60
2017-08-10T17:27:44.026Z,12.40
2017-08-10T17:30:11.662Z,12.40
2017-08-10T17:32:39.417Z,12.30
2017-08-10T17:35:07.062Z,12.20
2017-08-10T17:37:34.812Z,12.10
2017-08-10T17:40:02.506Z,12.00
2017-08-10T17:42:30.205Z,12.00
2017-08-10T17:44:57.848Z,12.00
2017-08-10T17:47:25.530Z,12.00
2017-08-10T17:49:53.171Z,12.00
2017-08-10T17:52:20.887Z,12.00
2017-08-10T17:54:48.599Z,12.00
2017-08-10T17:57:16.239Z,12.00
2017-08-10T17:59:43.922Z,11.90
2017-08-10T18:02:11.673Z,12.00
2017-08-10T18:04:39.318Z,11.90
2017-08-10T18:07:06.955Z,11.90
2017-08-10T18:09:34.669Z,11.80
2017-08-10T18:12:02.350Z,11.80
2017-08-10T18:14:29.990Z,11.80
2017-08-10T18:16:57.747Z,11.80
2017-08-10T18:19:25.390Z,11.80
2017-08-10T18:21:53.148Z,11.80
2017-08-10T18:24:20.965Z,11.90
2017-08-10T18:26:48.631Z,11.90
2017-08-10T18:29:16.378Z,11.80
2017-08-10T18:31:44.843Z,11.80
2017-08-10T18:34:12.474Z,11.70
2017-08-10T18:36:40.130Z,11.70
2017-08-10T18:39:07.880Z,11.70
2017-08-10T18:41:35.524Z,11.70
2017-08-10T18:44:03.170Z,11.70
2017-08-10T18:46:30.880Z,11.70
2017-08-10T18:49:00.198Z,11.70
2017-08-10T18:51:29.178Z,11.80
2017-08-10T18:53:56.859Z,11.80
2017-08-10T18:56:24.570Z,11.80
2017-08-10T18:58:52.219Z,11.80
2017-08-10T19:01:19.938Z,11.80
2017-08-10T19:03:47.634Z,11.90
2017-08-10T19:06:15.762Z,11.90
2017-08-10T19:08:47.502Z,11.90
2017-08-10T19:11:15.135Z,11.90
2017-08-10T19:13:42.895Z,11.90
2017-08-10T19:16:10.642Z,11.90
2017-08-10T19:18:38.318Z,12.00
2017-08-10T19:21:06.955Z,12.00
2017-08-10T19:23:34.744Z,12.00
2017-08-10T19:26:02.455Z,12.00
2017-08-10T19:28:30.143Z,12.00
2017-08-10T19:30:57.778Z,12.00
2017-08-10T19:33:25.489Z,12.00
2017-08-10T19:35:53.182Z,12.00
2017-08-10T19:38:20.825Z,11.90
2017-08-10T19:40:48.495Z,11.90
2017-08-10T19:43:16.217Z,11.90
2017-08-10T19:45:43.854Z,11.90
2017-08-10T19:48:11.562Z,11.90
2017-08-10T19:50:39.247Z,11.90
2017-08-10T19:53:06.899Z,11.90
2017-08-10T19:55:34.539Z,11.90
2017-08-10T19:58:02.230Z,11.90
2017-08-10T20:00:29.870Z,11.90
2017-08-10T20:02:57.657Z,11.90
2017-08-10T20:05:25.329Z,11.90
2017-08-10T20:07:52.969Z,11.90
2017-08-10T20:10:20.675Z,11.90
2017-08-10T20:12:49.137Z,11.90
2017-08-10T20:15:17.397Z,11.90
2017-08-10T20:17:45.144Z,11.90
2017-08-10T20:20:12.870Z,11.90
2017-08-10T20:22:40.515Z,11.90
2017-08-10T20:25:08.282Z,11.80
2017-08-10T20:27:35.991Z,11.90
2017-08-10T20:30:04.517Z,11.80
2017-08-10T20:32:32.656Z,11.80
2017-08-10T20:35:00.370Z,11.80
2017-08-10T20:37:28.029Z,11.80
2017-08-10T20:39:55.690Z,11.90
2017-08-10T20:42:23.390Z,11.90
2017-08-10T20:44:51.046Z,11.90
2017-08-10T20:47:18.697Z,12.00
2017-08-10T20:49:46.400Z,12.00
2017-08-10T20:52:14.536Z,12.00
2017-08-10T20:54:42.198Z,12.00
2017-08-10T20:57:10.294Z,12.10
2017-08-10T20:59:37.934Z,12.10
2017-08-10T21:02:05.576Z,12.10
2017-08-10T21:04:33.284Z,12.10
2017-08-10T21:07:01.353Z,12.20
2017-08-10T21:09:29.398Z,12.30
2017-08-10T21:11:57.565Z,12.20
2017-08-10T21:14:25.263Z,12.20
2017-08-10T21:16:52.923Z,12.30
2017-08-10T21:19:20.646Z,12.30
2017-08-10T21:21:48.316Z,12.30
2017-08-10T21:24:15.992Z,12.30
2017-08-10T21:26:43.686Z,12.30
2017-08-10T21:29:11.322Z,12.30
2017-08-10T21:31:38.977Z,12.30
2017-08-10T21:34:06.687Z,12.30
2017-08-10T21:36:34.495Z,12.30
2017-08-10T21:39:02.158Z,12.30
2017-08-10T21:41:29.886Z,12.30
2017-08-10T21:43:57.547Z,12.30
2017-08-10T21:46:25.353Z,12.30
2017-08-10T21:48:53.083Z,12.20
2017-08-10T21:51:20.722Z,12.20
2017-08-10T21:53:48.385Z,12.20
2017-08-10T21:56:16.079Z,12.20
2017-08-10T21:58:44.216Z,12.20
2017-08-10T22:01:11.919Z,12.20
2017-08-10T22:03:39.646Z,12.10
2017-08-10T22:06:07.315Z,12.00
2017-08-10T22:08:34.989Z,12.00
2017-08-10T22:11:02.714Z,12.10
2017-08-10T22:13:30.372Z,12.10
2017-08-10T22:15:58.027Z,12.10
2017-08-10T22:18:25.758Z,12.10
2017-08-10T22:20:53.410Z,12.10
2017-08-10T22:23:21.076Z,12.20
2017-08-10T22:25:49.411Z,12.20
2017-08-10T22:28:17.067Z,12.20
2017-08-10T22:30:44.724Z,12.20
2017-08-10T22:33:12.512Z,12.20
2017-08-10T22:35:40.158Z,12.20
2017-08-10T22:38:07.867Z,12.10
2017-08-10T22:40:35.555Z,12.10
2017-08-10T22:43:03.193Z,12.10
2017-08-10T22:45:30.835Z,12.10
2017-08-10T22:47:58.538Z,12.20
2017-08-10T22:50:26.196Z,12.20
2017-08-10T22:52:53.943Z,12.10
2017-08-10T22:55:21.621Z,12.10
2017-08-10T22:57:49.246Z,12.20
2017-08-10T23:00:16.882Z,12.10
2017-08-10T23:02:44.594Z,12.10
2017-08-10T23:05:12.270Z,12.10
2017-08-10T23:07:39.901Z,12.10
2017-08-10T23:10:07.589Z,12.10
2017-08-10T23:12:35.715Z,12.10
2017-08-10T23:15:03.391Z,12.10
2017-08-10T23:17:31.111Z,12.20
2017-08-10T23:19:58.746Z,12.20
2017-08-10T23:22:26.398Z,12.20
2017-08-10T23:24:54.085Z,12.30
2017-08-10T23:27:21.766Z,12.30
2017-08-10T23:29:49.405Z,12.30
2017-08-10T23:32:17.098Z,12.30
2017-08-10T23:34:45.138Z,12.30
2017-08-10T23:37:12.781Z,12.40
2017-08-10T23:39:40.559Z,12.30
2017-08-10T23:42:08.203Z,12.40
2017-08-10T23:44:36.242Z,12.40
2017-08-10T23:47:03.978Z,12.40
2017-08-10T23:49:31.626Z,12.40
2017-08-10T23:51:59.258Z,12.40
2017-08-10T23:54:26.954Z,12.40
2017-08-10T23:56:54.589Z,12.40
2017-08-10T23:59:22.234Z,12.40
